sensor_id;sensor_type;location;lat;lon;timestamp;P1;durP1;ratioP1;P2;durP2;ratioP2
80229;SDS011;69540;42.136;24.742;2024-02-14T00:02:09;1.13;;;1.02;;
80229;SDS011;69540;42.136;24.742;2024-02-14T00:04:35;0.77;;;0.68;;
80229;SDS011;69540;42.136;24.742;2024-02-14T00:07:01;0.60;;;0.60;;
80229;SDS011;69540;42.136;24.742;2024-02-14T00:09:27;0.82;;;0.82;;
80229;SDS011;69540;42.136;24.742;2024-02-14T00:11:52;0.90;;;0.90;;
80229;SDS011;69540;42.136;24.742;2024-02-14T00:14:18;0.70;;;0.70;;
80229;SDS011;69540;42.136;24.742;2024-02-14T00:16:46;0.88;;;0.88;;
80229;SDS011;69540;42.136;24.742;2024-02-14T00:19:12;1.35;;;0.90;;
80229;SDS011;69540;42.136;24.742;2024-02-14T00:21:38;0.77;;;0.77;;
80229;SDS011;69540;42.136;24.742;2024-02-14T00:24:04;0.70;;;0.70;;
80229;SDS011;69540;42.136;24.742;2024-02-14T00:26:31;0.85;;;0.85;;
80229;SDS011;69540;42.136;24.742;2024-02-14T00:28:56;0.80;;;0.80;;
80229;SDS011;69540;42.136;24.742;2024-02-14T00:31:22;0.90;;;0.90;;
80229;SDS011;69540;42.136;24.742;2024-02-14T00:33:48;0.80;;;0.80;;
80229;SDS011;69540;42.136;24.742;2024-02-14T00:36:14;0.90;;;0.90;;
80229;SDS011;69540;42.136;24.742;2024-02-14T00:38:39;1.13;;;0.80;;
80229;SDS011;69540;42.136;24.742;2024-02-14T00:41:05;0.82;;;0.82;;
80229;SDS011;69540;42.136;24.742;2024-02-14T00:43:31;1.02;;;1.00;;
80229;SDS011;69540;42.136;24.742;2024-02-14T00:45:56;1.17;;;1.10;;
80229;SDS011;69540;42.136;24.742;2024-02-14T00:48:23;0.93;;;0.93;;
80229;SDS011;69540;42.136;24.742;2024-02-14T00:50:49;0.95;;;0.95;;
80229;SDS011;69540;42.136;24.742;2024-02-14T00:53:14;0.90;;;0.90;;
80229;SDS011;69540;42.136;24.742;2024-02-14T00:55:40;1.08;;;1.08;;
80229;SDS011;69540;42.136;24.742;2024-02-14T00:58:06;1.15;;;1.10;;
80229;SDS011;69540;42.136;24.742;2024-02-14T01:00:32;0.82;;;0.82;;
80229;SDS011;69540;42.136;24.742;2024-02-14T01:02:58;1.00;;;1.00;;
80229;SDS011;69540;42.136;24.742;2024-02-14T01:05:24;0.88;;;0.88;;
80229;SDS011;69540;42.136;24.742;2024-02-14T01:07:49;0.95;;;0.95;;
80229;SDS011;69540;42.136;24.742;2024-02-14T01:10:16;1.50;;;0.82;;
80229;SDS011;69540;42.136;24.742;2024-02-14T01:12:43;0.90;;;0.90;;
80229;SDS011;69540;42.136;24.742;2024-02-14T01:15:09;1.08;;;0.70;;
80229;SDS011;69540;42.136;24.742;2024-02-14T01:17:35;2.38;;;0.95;;
80229;SDS011;69540;42.136;24.742;2024-02-14T01:20:01;1.05;;;0.80;;
80229;SDS011;69540;42.136;24.742;2024-02-14T01:22:27;0.80;;;0.80;;
80229;SDS011;69540;42.136;24.742;2024-02-14T01:24:53;0.80;;;0.80;;
80229;SDS011;69540;42.136;24.742;2024-02-14T01:27:19;1.02;;;1.00;;
80229;SDS011;69540;42.136;24.742;2024-02-14T01:29:47;1.02;;;1.00;;
80229;SDS011;69540;42.136;24.742;2024-02-14T01:32:13;1.20;;;0.77;;
80229;SDS011;69540;42.136;24.742;2024-02-14T01:34:39;1.00;;;1.00;;
80229;SDS011;69540;42.136;24.742;2024-02-14T01:37:06;0.95;;;0.95;;
80229;SDS011;69540;42.136;24.742;2024-02-14T01:39:32;0.73;;;0.73;;
80229;SDS011;69540;42.136;24.742;2024-02-14T01:41:57;0.70;;;0.70;;
80229;SDS011;69540;42.136;24.742;2024-02-14T01:44:23;0.80;;;0.80;;
80229;SDS011;69540;42.136;24.742;2024-02-14T01:46:49;1.08;;;1.08;;
80229;SDS011;69540;42.136;24.742;2024-02-14T01:49:15;1.70;;;1.20;;
80229;SDS011;69540;42.136;24.742;2024-02-14T01:51:42;1.05;;;1.05;;
80229;SDS011;69540;42.136;24.742;2024-02-14T01:54:10;0.80;;;0.80;;
80229;SDS011;69540;42.136;24.742;2024-02-14T01:56:37;0.90;;;0.90;;
80229;SDS011;69540;42.136;24.742;2024-02-14T01:59:04;1.08;;;1.08;;
80229;SDS011;69540;42.136;24.742;2024-02-14T02:01:33;1.13;;;1.13;;
80229;SDS011;69540;42.136;24.742;2024-02-14T02:04:00;1.30;;;1.20;;
80229;SDS011;69540;42.136;24.742;2024-02-14T02:06:26;0.93;;;0.93;;
80229;SDS011;69540;42.136;24.742;2024-02-14T02:08:53;0.95;;;0.95;;
80229;SDS011;69540;42.136;24.742;2024-02-14T02:11:19;0.90;;;0.90;;
80229;SDS011;69540;42.136;24.742;2024-02-14T02:13:45;1.00;;;1.00;;
80229;SDS011;69540;42.136;24.742;2024-02-14T02:16:11;1.63;;;1.10;;
80229;SDS011;69540;42.136;24.742;2024-02-14T02:18:37;1.17;;;1.17;;
80229;SDS011;69540;42.136;24.742;2024-02-14T02:21:03;1.10;;;1.00;;
80229;SDS011;69540;42.136;24.742;2024-02-14T02:23:31;1.10;;;1.10;;
80229;SDS011;69540;42.136;24.742;2024-02-14T02:26:00;1.20;;;1.17;;
80229;SDS011;69540;42.136;24.742;2024-02-14T02:28:27;1.20;;;1.20;;
80229;SDS011;69540;42.136;24.742;2024-02-14T02:30:53;1.08;;;1.08;;
80229;SDS011;69540;42.136;24.742;2024-02-14T02:33:21;1.30;;;1.17;;
80229;SDS011;69540;42.136;24.742;2024-02-14T02:35:47;1.48;;;1.38;;
80229;SDS011;69540;42.136;24.742;2024-02-14T02:38:15;1.17;;;1.17;;
80229;SDS011;69540;42.136;24.742;2024-02-14T02:40:42;1.13;;;1.05;;
80229;SDS011;69540;42.136;24.742;2024-02-14T02:43:08;1.60;;;1.50;;
80229;SDS011;69540;42.136;24.742;2024-02-14T02:45:35;1.40;;;1.30;;
80229;SDS011;69540;42.136;24.742;2024-02-14T02:48:01;1.30;;;1.30;;
80229;SDS011;69540;42.136;24.742;2024-02-14T02:50:27;1.55;;;1.45;;
80229;SDS011;69540;42.136;24.742;2024-02-14T02:52:54;1.10;;;1.10;;
80229;SDS011;69540;42.136;24.742;2024-02-14T02:55:20;1.38;;;1.27;;
80229;SDS011;69540;42.136;24.742;2024-02-14T02:57:45;1.40;;;1.30;;
80229;SDS011;69540;42.136;24.742;2024-02-14T03:00:11;1.27;;;1.23;;
80229;SDS011;69540;42.136;24.742;2024-02-14T03:02:38;2.22;;;1.45;;
80229;SDS011;69540;42.136;24.742;2024-02-14T03:05:09;1.70;;;1.60;;
80229;SDS011;69540;42.136;24.742;2024-02-14T03:07:42;1.40;;;1.40;;
80229;SDS011;69540;42.136;24.742;2024-02-14T03:10:12;1.60;;;1.50;;
80229;SDS011;69540;42.136;24.742;2024-02-14T03:12:39;1.50;;;1.50;;
80229;SDS011;69540;42.136;24.742;2024-02-14T03:15:05;1.45;;;1.35;;
80229;SDS011;69540;42.136;24.742;2024-02-14T03:17:35;1.50;;;1.40;;
80229;SDS011;69540;42.136;24.742;2024-02-14T03:20:00;1.40;;;1.30;;
80229;SDS011;69540;42.136;24.742;2024-02-14T03:22:26;1.80;;;1.70;;
80229;SDS011;69540;42.136;24.742;2024-02-14T03:24:52;1.70;;;1.60;;
80229;SDS011;69540;42.136;24.742;2024-02-14T03:27:18;1.75;;;1.65;;
80229;SDS011;69540;42.136;24.742;2024-02-14T03:29:44;2.03;;;1.92;;
80229;SDS011;69540;42.136;24.742;2024-02-14T03:32:09;1.95;;;1.80;;
80229;SDS011;69540;42.136;24.742;2024-02-14T03:34:35;2.30;;;2.20;;
80229;SDS011;69540;42.136;24.742;2024-02-14T03:37:01;2.05;;;1.95;;
80229;SDS011;69540;42.136;24.742;2024-02-14T03:39:28;1.98;;;1.88;;
80229;SDS011;69540;42.136;24.742;2024-02-14T03:41:54;1.98;;;1.88;;
80229;SDS011;69540;42.136;24.742;2024-02-14T03:44:20;2.45;;;2.35;;
80229;SDS011;69540;42.136;24.742;2024-02-14T03:46:47;2.30;;;2.20;;
80229;SDS011;69540;42.136;24.742;2024-02-14T03:49:13;2.38;;;2.17;;
80229;SDS011;69540;42.136;24.742;2024-02-14T03:51:39;2.47;;;2.28;;
80229;SDS011;69540;42.136;24.742;2024-02-14T03:54:05;2.45;;;2.33;;
80229;SDS011;69540;42.136;24.742;2024-02-14T03:56:31;2.55;;;2.35;;
80229;SDS011;69540;42.136;24.742;2024-02-14T03:58:58;2.38;;;2.17;;
80229;SDS011;69540;42.136;24.742;2024-02-14T04:01:24;2.38;;;2.28;;
80229;SDS011;69540;42.136;24.742;2024-02-14T04:03:50;2.60;;;2.40;;
80229;SDS011;69540;42.136;24.742;2024-02-14T04:06:16;3.00;;;2.80;;
80229;SDS011;69540;42.136;24.742;2024-02-14T04:08:42;2.78;;;2.58;;
80229;SDS011;69540;42.136;24.742;2024-02-14T04:11:08;2.65;;;2.47;;
80229;SDS011;69540;42.136;24.742;2024-02-14T04:13:35;2.63;;;2.42;;
80229;SDS011;69540;42.136;24.742;2024-02-14T04:16:00;2.55;;;2.38;;
80229;SDS011;69540;42.136;24.742;2024-02-14T04:18:26;2.83;;;2.63;;
80229;SDS011;69540;42.136;24.742;2024-02-14T04:20:52;2.70;;;2.50;;
80229;SDS011;69540;42.136;24.742;2024-02-14T04:23:18;2.60;;;2.40;;
80229;SDS011;69540;42.136;24.742;2024-02-14T04:25:43;2.83;;;2.55;;
80229;SDS011;69540;42.136;24.742;2024-02-14T04:30:54;2.20;;;2.10;;
80229;SDS011;69540;42.136;24.742;2024-02-14T04:33:21;2.85;;;2.65;;
80229;SDS011;69540;42.136;24.742;2024-02-14T04:35:46;2.80;;;2.60;;
80229;SDS011;69540;42.136;24.742;2024-02-14T04:38:12;2.50;;;2.30;;
80229;SDS011;69540;42.136;24.742;2024-02-14T04:40:38;2.67;;;2.47;;
80229;SDS011;69540;42.136;24.742;2024-02-14T04:43:04;2.40;;;2.30;;
80229;SDS011;69540;42.136;24.742;2024-02-14T04:45:30;3.03;;;2.72;;
80229;SDS011;69540;42.136;24.742;2024-02-14T04:47:56;3.30;;;2.70;;
80229;SDS011;69540;42.136;24.742;2024-02-14T04:50:21;2.80;;;2.60;;
80229;SDS011;69540;42.136;24.742;2024-02-14T04:52:47;2.83;;;2.63;;
80229;SDS011;69540;42.136;24.742;2024-02-14T04:55:13;3.08;;;2.88;;
80229;SDS011;69540;42.136;24.742;2024-02-14T04:57:39;3.00;;;2.80;;
80229;SDS011;69540;42.136;24.742;2024-02-14T05:00:04;2.75;;;2.55;;
80229;SDS011;69540;42.136;24.742;2024-02-14T05:02:31;3.00;;;2.80;;
80229;SDS011;69540;42.136;24.742;2024-02-14T05:04:56;3.25;;;2.80;;
80229;SDS011;69540;42.136;24.742;2024-02-14T05:07:23;2.92;;;2.72;;
80229;SDS011;69540;42.136;24.742;2024-02-14T05:09:48;3.20;;;3.00;;
80229;SDS011;69540;42.136;24.742;2024-02-14T05:12:16;3.03;;;2.78;;
80229;SDS011;69540;42.136;24.742;2024-02-14T05:14:42;3.35;;;3.05;;
80229;SDS011;69540;42.136;24.742;2024-02-14T05:17:08;3.25;;;3.00;;
80229;SDS011;69540;42.136;24.742;2024-02-14T05:19:33;5.25;;;3.10;;
80229;SDS011;69540;42.136;24.742;2024-02-14T05:21:59;4.60;;;3.60;;
80229;SDS011;69540;42.136;24.742;2024-02-14T05:24:25;3.67;;;3.42;;
80229;SDS011;69540;42.136;24.742;2024-02-14T05:26:52;3.28;;;3.00;;
80229;SDS011;69540;42.136;24.742;2024-02-14T05:29:18;3.55;;;3.08;;
80229;SDS011;69540;42.136;24.742;2024-02-14T05:31:46;3.60;;;3.30;;
80229;SDS011;69540;42.136;24.742;2024-02-14T05:34:13;3.33;;;3.03;;
80229;SDS011;69540;42.136;24.742;2024-02-14T05:36:39;3.67;;;3.25;;
80229;SDS011;69540;42.136;24.742;2024-02-14T05:39:07;3.50;;;3.20;;
80229;SDS011;69540;42.136;24.742;2024-02-14T05:41:33;3.72;;;3.42;;
80229;SDS011;69540;42.136;24.742;2024-02-14T05:43:59;3.92;;;3.55;;
80229;SDS011;69540;42.136;24.742;2024-02-14T05:46:25;3.35;;;3.15;;
80229;SDS011;69540;42.136;24.742;2024-02-14T05:48:51;3.90;;;3.60;;
80229;SDS011;69540;42.136;24.742;2024-02-14T05:51:20;4.00;;;3.67;;
80229;SDS011;69540;42.136;24.742;2024-02-14T05:53:46;4.00;;;3.50;;
80229;SDS011;69540;42.136;24.742;2024-02-14T05:56:11;3.60;;;3.30;;
80229;SDS011;69540;42.136;24.742;2024-02-14T05:58:37;3.80;;;3.40;;
80229;SDS011;69540;42.136;24.742;2024-02-14T06:01:03;4.18;;;3.33;;
80229;SDS011;69540;42.136;24.742;2024-02-14T06:03:28;3.40;;;3.20;;
80229;SDS011;69540;42.136;24.742;2024-02-14T06:05:54;3.65;;;3.28;;
80229;SDS011;69540;42.136;24.742;2024-02-14T06:08:20;3.33;;;3.05;;
80229;SDS011;69540;42.136;24.742;2024-02-14T06:10:46;3.47;;;3.17;;
80229;SDS011;69540;42.136;24.742;2024-02-14T06:13:12;3.10;;;2.90;;
80229;SDS011;69540;42.136;24.742;2024-02-14T06:15:38;2.90;;;2.60;;
80229;SDS011;69540;42.136;24.742;2024-02-14T06:18:04;3.15;;;2.90;;
80229;SDS011;69540;42.136;24.742;2024-02-14T06:20:30;3.05;;;2.85;;
80229;SDS011;69540;42.136;24.742;2024-02-14T06:22:55;3.80;;;3.35;;
80229;SDS011;69540;42.136;24.742;2024-02-14T06:25:21;4.10;;;3.10;;
80229;SDS011;69540;42.136;24.742;2024-02-14T06:27:47;3.10;;;2.90;;
80229;SDS011;69540;42.136;24.742;2024-02-14T06:30:12;3.50;;;3.20;;
80229;SDS011;69540;42.136;24.742;2024-02-14T06:32:38;4.15;;;2.90;;
80229;SDS011;69540;42.136;24.742;2024-02-14T06:35:04;3.40;;;3.10;;
80229;SDS011;69540;42.136;24.742;2024-02-14T06:37:30;3.40;;;3.10;;
80229;SDS011;69540;42.136;24.742;2024-02-14T06:39:56;3.30;;;3.00;;
80229;SDS011;69540;42.136;24.742;2024-02-14T06:42:21;3.55;;;3.25;;
80229;SDS011;69540;42.136;24.742;2024-02-14T06:44:48;3.83;;;3.40;;
80229;SDS011;69540;42.136;24.742;2024-02-14T06:47:14;3.88;;;3.35;;
80229;SDS011;69540;42.136;24.742;2024-02-14T06:49:40;3.80;;;3.50;;
80229;SDS011;69540;42.136;24.742;2024-02-14T06:52:06;4.40;;;3.20;;
80229;SDS011;69540;42.136;24.742;2024-02-14T06:54:31;3.40;;;3.10;;
80229;SDS011;69540;42.136;24.742;2024-02-14T06:56:57;3.70;;;3.47;;
80229;SDS011;69540;42.136;24.742;2024-02-14T06:59:23;3.40;;;3.10;;
80229;SDS011;69540;42.136;24.742;2024-02-14T07:01:49;3.47;;;3.22;;
80229;SDS011;69540;42.136;24.742;2024-02-14T07:04:14;3.97;;;3.60;;
80229;SDS011;69540;42.136;24.742;2024-02-14T07:06:40;4.10;;;3.63;;
80229;SDS011;69540;42.136;24.742;2024-02-14T07:09:06;5.25;;;3.65;;
80229;SDS011;69540;42.136;24.742;2024-02-14T07:11:32;3.83;;;3.50;;
80229;SDS011;69540;42.136;24.742;2024-02-14T07:13:57;4.45;;;3.90;;
80229;SDS011;69540;42.136;24.742;2024-02-14T07:16:23;3.70;;;3.42;;
80229;SDS011;69540;42.136;24.742;2024-02-14T07:18:49;4.20;;;3.80;;
80229;SDS011;69540;42.136;24.742;2024-02-14T07:21:15;4.03;;;3.72;;
80229;SDS011;69540;42.136;24.742;2024-02-14T07:23:41;4.28;;;3.75;;
80229;SDS011;69540;42.136;24.742;2024-02-14T07:26:07;4.10;;;3.80;;
80229;SDS011;69540;42.136;24.742;2024-02-14T07:28:33;4.20;;;3.83;;
80229;SDS011;69540;42.136;24.742;2024-02-14T07:30:58;4.20;;;3.80;;
80229;SDS011;69540;42.136;24.742;2024-02-14T07:33:24;4.15;;;3.83;;
80229;SDS011;69540;42.136;24.742;2024-02-14T07:35:50;4.20;;;3.80;;
80229;SDS011;69540;42.136;24.742;2024-02-14T07:38:16;4.53;;;4.13;;
80229;SDS011;69540;42.136;24.742;2024-02-14T07:40:42;4.38;;;4.07;;
80229;SDS011;69540;42.136;24.742;2024-02-14T07:43:08;4.78;;;4.38;;
80229;SDS011;69540;42.136;24.742;2024-02-14T07:45:34;4.30;;;3.90;;
80229;SDS011;69540;42.136;24.742;2024-02-14T07:47:59;6.20;;;4.07;;
80229;SDS011;69540;42.136;24.742;2024-02-14T07:50:25;5.00;;;4.00;;
80229;SDS011;69540;42.136;24.742;2024-02-14T07:52:52;4.53;;;4.03;;
80229;SDS011;69540;42.136;24.742;2024-02-14T07:55:18;5.38;;;3.85;;
80229;SDS011;69540;42.136;24.742;2024-02-14T07:57:44;3.92;;;3.63;;
80229;SDS011;69540;42.136;24.742;2024-02-14T08:00:10;4.90;;;4.20;;
80229;SDS011;69540;42.136;24.742;2024-02-14T08:02:37;4.50;;;4.10;;
80229;SDS011;69540;42.136;24.742;2024-02-14T08:05:03;4.38;;;3.97;;
80229;SDS011;69540;42.136;24.742;2024-02-14T08:07:30;4.22;;;3.83;;
80229;SDS011;69540;42.136;24.742;2024-02-14T08:09:56;4.40;;;4.00;;
80229;SDS011;69540;42.136;24.742;2024-02-14T08:12:21;4.75;;;4.25;;
80229;SDS011;69540;42.136;24.742;2024-02-14T08:14:48;4.03;;;3.63;;
80229;SDS011;69540;42.136;24.742;2024-02-14T08:17:15;5.10;;;3.55;;
80229;SDS011;69540;42.136;24.742;2024-02-14T08:19:41;4.43;;;3.70;;
80229;SDS011;69540;42.136;24.742;2024-02-14T08:22:06;4.32;;;3.92;;
80229;SDS011;69540;42.136;24.742;2024-02-14T08:24:33;5.15;;;4.65;;
80229;SDS011;69540;42.136;24.742;2024-02-14T08:26:58;4.22;;;3.85;;
80229;SDS011;69540;42.136;24.742;2024-02-14T08:29:24;5.75;;;4.25;;
80229;SDS011;69540;42.136;24.742;2024-02-14T08:31:50;4.30;;;3.90;;
80229;SDS011;69540;42.136;24.742;2024-02-14T08:34:15;4.93;;;4.53;;
80229;SDS011;69540;42.136;24.742;2024-02-14T08:36:42;5.57;;;4.90;;
80229;SDS011;69540;42.136;24.742;2024-02-14T08:39:07;4.70;;;4.30;;
80229;SDS011;69540;42.136;24.742;2024-02-14T08:41:35;6.05;;;4.43;;
80229;SDS011;69540;42.136;24.742;2024-02-14T08:44:01;4.88;;;4.47;;
80229;SDS011;69540;42.136;24.742;2024-02-14T08:46:26;5.07;;;4.57;;
80229;SDS011;69540;42.136;24.742;2024-02-14T08:48:53;5.88;;;4.13;;
80229;SDS011;69540;42.136;24.742;2024-02-14T08:51:18;5.28;;;4.38;;
80229;SDS011;69540;42.136;24.742;2024-02-14T08:53:45;5.20;;;4.13;;
80229;SDS011;69540;42.136;24.742;2024-02-14T08:56:11;4.90;;;4.40;;
80229;SDS011;69540;42.136;24.742;2024-02-14T08:58:37;5.50;;;4.60;;
80229;SDS011;69540;42.136;24.742;2024-02-14T09:01:03;5.53;;;4.88;;
80229;SDS011;69540;42.136;24.742;2024-02-14T09:03:29;5.30;;;4.70;;
80229;SDS011;69540;42.136;24.742;2024-02-14T09:05:57;5.30;;;4.80;;
80229;SDS011;69540;42.136;24.742;2024-02-14T09:08:23;4.75;;;4.32;;
80229;SDS011;69540;42.136;24.742;2024-02-14T09:10:49;5.13;;;4.68;;
80229;SDS011;69540;42.136;24.742;2024-02-14T09:13:15;5.13;;;4.63;;
80229;SDS011;69540;42.136;24.742;2024-02-14T09:15:42;4.57;;;4.18;;
80229;SDS011;69540;42.136;24.742;2024-02-14T09:18:08;5.07;;;4.68;;
80229;SDS011;69540;42.136;24.742;2024-02-14T09:20:34;5.28;;;4.78;;
80229;SDS011;69540;42.136;24.742;2024-02-14T09:23:00;5.18;;;4.72;;
80229;SDS011;69540;42.136;24.742;2024-02-14T09:25:25;5.60;;;5.00;;
80229;SDS011;69540;42.136;24.742;2024-02-14T09:27:51;5.82;;;5.32;;
80229;SDS011;69540;42.136;24.742;2024-02-14T09:30:18;5.90;;;5.40;;
80229;SDS011;69540;42.136;24.742;2024-02-14T09:32:44;5.50;;;5.00;;
80229;SDS011;69540;42.136;24.742;2024-02-14T09:35:10;6.40;;;5.70;;
80229;SDS011;69540;42.136;24.742;2024-02-14T09:37:36;6.57;;;5.85;;
80229;SDS011;69540;42.136;24.742;2024-02-14T09:40:05;6.15;;;5.57;;
80229;SDS011;69540;42.136;24.742;2024-02-14T09:42:38;5.68;;;5.18;;
80229;SDS011;69540;42.136;24.742;2024-02-14T09:45:08;6.90;;;5.75;;
80229;SDS011;69540;42.136;24.742;2024-02-14T09:47:34;6.38;;;5.57;;
80229;SDS011;69540;42.136;24.742;2024-02-14T09:50:02;6.07;;;5.55;;
80229;SDS011;69540;42.136;24.742;2024-02-14T09:52:32;5.97;;;5.47;;
80229;SDS011;69540;42.136;24.742;2024-02-14T09:54:58;6.18;;;5.57;;
80229;SDS011;69540;42.136;24.742;2024-02-14T09:57:27;6.00;;;5.50;;
80229;SDS011;69540;42.136;24.742;2024-02-14T09:59:54;6.40;;;5.80;;
80229;SDS011;69540;42.136;24.742;2024-02-14T10:02:21;6.57;;;5.55;;
80229;SDS011;69540;42.136;24.742;2024-02-14T10:04:47;6.82;;;5.65;;
80229;SDS011;69540;42.136;24.742;2024-02-14T10:07:13;6.13;;;5.63;;
80229;SDS011;69540;42.136;24.742;2024-02-14T10:09:42;6.18;;;5.57;;
80229;SDS011;69540;42.136;24.742;2024-02-14T10:12:08;5.70;;;5.20;;
80229;SDS011;69540;42.136;24.742;2024-02-14T10:14:35;6.07;;;5.47;;
80229;SDS011;69540;42.136;24.742;2024-02-14T10:17:03;5.65;;;5.15;;
80229;SDS011;69540;42.136;24.742;2024-02-14T10:19:29;5.55;;;5.05;;
80229;SDS011;69540;42.136;24.742;2024-02-14T10:21:58;6.85;;;5.35;;
80229;SDS011;69540;42.136;24.742;2024-02-14T10:24:26;6.13;;;5.22;;
80229;SDS011;69540;42.136;24.742;2024-02-14T10:26:53;6.00;;;5.43;;
80229;SDS011;69540;42.136;24.742;2024-02-14T10:29:22;5.38;;;4.88;;
80229;SDS011;69540;42.136;24.742;2024-02-14T10:31:48;5.65;;;5.05;;
80229;SDS011;69540;42.136;24.742;2024-02-14T10:34:14;5.80;;;5.30;;
80229;SDS011;69540;42.136;24.742;2024-02-14T10:36:40;5.13;;;4.65;;
80229;SDS011;69540;42.136;24.742;2024-02-14T10:39:09;5.38;;;4.88;;
80229;SDS011;69540;42.136;24.742;2024-02-14T10:41:36;4.97;;;4.50;;
80229;SDS011;69540;42.136;24.742;2024-02-14T10:44:02;4.57;;;4.18;;
80229;SDS011;69540;42.136;24.742;2024-02-14T10:46:29;6.10;;;4.88;;
80229;SDS011;69540;42.136;24.742;2024-02-14T10:48:58;4.82;;;4.28;;
80229;SDS011;69540;42.136;24.742;2024-02-14T10:51:32;4.88;;;4.38;;
80229;SDS011;69540;42.136;24.742;2024-02-14T10:54:06;5.53;;;4.75;;
80229;SDS011;69540;42.136;24.742;2024-02-14T10:56:41;4.90;;;4.50;;
80229;SDS011;69540;42.136;24.742;2024-02-14T10:59:11;4.63;;;4.22;;
80229;SDS011;69540;42.136;24.742;2024-02-14T11:01:41;4.80;;;4.40;;
80229;SDS011;69540;42.136;24.742;2024-02-14T11:04:07;4.90;;;4.50;;
80229;SDS011;69540;42.136;24.742;2024-02-14T11:06:51;5.03;;;4.63;;
80229;SDS011;69540;42.136;24.742;2024-02-14T11:09:19;4.70;;;4.30;;
80229;SDS011;69540;42.136;24.742;2024-02-14T11:11:45;6.00;;;5.47;;
80229;SDS011;69540;42.136;24.742;2024-02-14T11:14:15;4.88;;;4.20;;
80229;SDS011;69540;42.136;24.742;2024-02-14T11:16:41;4.70;;;4.30;;
80229;SDS011;69540;42.136;24.742;2024-02-14T11:19:10;4.75;;;4.35;;
80229;SDS011;69540;42.136;24.742;2024-02-14T11:21:50;4.35;;;4.00;;
80229;SDS011;69540;42.136;24.742;2024-02-14T11:24:16;4.80;;;4.40;;
80229;SDS011;69540;42.136;24.742;2024-02-14T11:26:48;4.00;;;3.60;;
80229;SDS011;69540;42.136;24.742;2024-02-14T11:29:20;4.30;;;3.90;;
80229;SDS011;69540;42.136;24.742;2024-02-14T11:31:46;4.50;;;4.10;;
80229;SDS011;69540;42.136;24.742;2024-02-14T11:34:16;4.88;;;4.38;;
80229;SDS011;69540;42.136;24.742;2024-02-14T11:36:42;4.85;;;4.45;;
80229;SDS011;69540;42.136;24.742;2024-02-14T11:39:11;4.60;;;4.20;;
80229;SDS011;69540;42.136;24.742;2024-02-14T11:41:40;4.55;;;4.15;;
80229;SDS011;69540;42.136;24.742;2024-02-14T11:44:07;5.40;;;4.75;;
80229;SDS011;69540;42.136;24.742;2024-02-14T11:46:33;4.88;;;4.40;;
80229;SDS011;69540;42.136;24.742;2024-02-14T11:49:01;4.43;;;4.03;;
80229;SDS011;69540;42.136;24.742;2024-02-14T11:51:28;5.32;;;4.50;;
80229;SDS011;69540;42.136;24.742;2024-02-14T11:53:57;5.00;;;4.60;;
80229;SDS011;69540;42.136;24.742;2024-02-14T11:56:33;4.30;;;3.90;;
80229;SDS011;69540;42.136;24.742;2024-02-14T11:59:00;4.93;;;4.10;;
80229;SDS011;69540;42.136;24.742;2024-02-14T12:01:30;5.43;;;4.50;;
80229;SDS011;69540;42.136;24.742;2024-02-14T12:03:57;4.60;;;3.97;;
80229;SDS011;69540;42.136;24.742;2024-02-14T12:06:24;4.63;;;4.03;;
80229;SDS011;69540;42.136;24.742;2024-02-14T12:08:50;4.35;;;4.05;;
80229;SDS011;69540;42.136;24.742;2024-02-14T12:11:16;3.67;;;3.45;;
80229;SDS011;69540;42.136;24.742;2024-02-14T12:13:42;4.25;;;3.85;;
80229;SDS011;69540;42.136;24.742;2024-02-14T12:16:11;4.10;;;3.80;;
80229;SDS011;69540;42.136;24.742;2024-02-14T12:18:37;5.55;;;3.70;;
80229;SDS011;69540;42.136;24.742;2024-02-14T12:21:05;4.18;;;3.88;;
80229;SDS011;69540;42.136;24.742;2024-02-14T12:23:34;4.88;;;3.80;;
80229;SDS011;69540;42.136;24.742;2024-02-14T12:26:04;4.82;;;3.85;;
80229;SDS011;69540;42.136;24.742;2024-02-14T12:28:30;4.07;;;3.70;;
80229;SDS011;69540;42.136;24.742;2024-02-14T12:30:56;5.05;;;3.80;;
80229;SDS011;69540;42.136;24.742;2024-02-14T12:33:23;4.18;;;3.78;;
80229;SDS011;69540;42.136;24.742;2024-02-14T12:35:50;6.85;;;4.60;;
80229;SDS011;69540;42.136;24.742;2024-02-14T12:38:17;6.43;;;5.00;;
80229;SDS011;69540;42.136;24.742;2024-02-14T12:40:44;8.35;;;4.68;;
80229;SDS011;69540;42.136;24.742;2024-02-14T12:43:11;4.70;;;4.28;;
80229;SDS011;69540;42.136;24.742;2024-02-14T12:45:38;4.68;;;4.25;;
80229;SDS011;69540;42.136;24.742;2024-02-14T12:48:05;4.65;;;4.20;;
80229;SDS011;69540;42.136;24.742;2024-02-14T12:50:33;4.43;;;4.03;;
80229;SDS011;69540;42.136;24.742;2024-02-14T12:52:59;5.60;;;4.15;;
80229;SDS011;69540;42.136;24.742;2024-02-14T12:55:25;4.40;;;4.00;;
80229;SDS011;69540;42.136;24.742;2024-02-14T12:57:53;5.05;;;4.10;;
80229;SDS011;69540;42.136;24.742;2024-02-14T13:00:21;4.00;;;3.70;;
80229;SDS011;69540;42.136;24.742;2024-02-14T13:02:47;3.88;;;3.50;;
80229;SDS011;69540;42.136;24.742;2024-02-14T13:05:13;4.28;;;3.88;;
80229;SDS011;69540;42.136;24.742;2024-02-14T13:07:39;4.00;;;3.60;;
80229;SDS011;69540;42.136;24.742;2024-02-14T13:10:06;3.95;;;3.65;;
80229;SDS011;69540;42.136;24.742;2024-02-14T13:12:34;5.07;;;3.88;;
80229;SDS011;69540;42.136;24.742;2024-02-14T13:15:00;3.92;;;3.63;;
80229;SDS011;69540;42.136;24.742;2024-02-14T13:17:26;4.00;;;3.70;;
80229;SDS011;69540;42.136;24.742;2024-02-14T13:19:52;4.13;;;3.50;;
80229;SDS011;69540;42.136;24.742;2024-02-14T13:22:20;4.00;;;3.70;;
80229;SDS011;69540;42.136;24.742;2024-02-14T13:24:46;3.72;;;3.42;;
80229;SDS011;69540;42.136;24.742;2024-02-14T13:27:12;4.07;;;3.67;;
80229;SDS011;69540;42.136;24.742;2024-02-14T13:29:39;3.97;;;3.67;;
80229;SDS011;69540;42.136;24.742;2024-02-14T13:32:05;4.28;;;3.53;;
80229;SDS011;69540;42.136;24.742;2024-02-14T13:34:32;4.05;;;3.65;;
80229;SDS011;69540;42.136;24.742;2024-02-14T13:36:59;4.07;;;3.60;;
80229;SDS011;69540;42.136;24.742;2024-02-14T13:39:25;4.45;;;3.10;;
80229;SDS011;69540;42.136;24.742;2024-02-14T13:41:50;4.07;;;3.65;;
80229;SDS011;69540;42.136;24.742;2024-02-14T13:44:17;4.18;;;3.88;;
80229;SDS011;69540;42.136;24.742;2024-02-14T13:46:43;3.90;;;3.60;;
80229;SDS011;69540;42.136;24.742;2024-02-14T13:49:10;5.20;;;3.92;;
80229;SDS011;69540;42.136;24.742;2024-02-14T13:51:37;4.18;;;3.80;;
80229;SDS011;69540;42.136;24.742;2024-02-14T13:54:03;3.75;;;3.45;;
80229;SDS011;69540;42.136;24.742;2024-02-14T13:56:29;3.42;;;3.10;;
80229;SDS011;69540;42.136;24.742;2024-02-14T13:58:55;3.65;;;3.35;;
80229;SDS011;69540;42.136;24.742;2024-02-14T14:01:21;3.65;;;3.35;;
80229;SDS011;69540;42.136;24.742;2024-02-14T14:03:46;4.03;;;3.63;;
80229;SDS011;69540;42.136;24.742;2024-02-14T14:06:15;3.80;;;3.38;;
80229;SDS011;69540;42.136;24.742;2024-02-14T14:08:41;4.18;;;3.78;;
80229;SDS011;69540;42.136;24.742;2024-02-14T14:11:06;5.47;;;3.47;;
80229;SDS011;69540;42.136;24.742;2024-02-14T14:13:33;15.57;;;3.50;;
80229;SDS011;69540;42.136;24.742;2024-02-14T14:15:59;3.80;;;3.50;;
80229;SDS011;69540;42.136;24.742;2024-02-14T14:18:25;3.70;;;3.35;;
80229;SDS011;69540;42.136;24.742;2024-02-14T14:20:51;5.30;;;4.05;;
80229;SDS011;69540;42.136;24.742;2024-02-14T14:23:20;4.35;;;3.80;;
80229;SDS011;69540;42.136;24.742;2024-02-14T14:25:45;5.65;;;3.92;;
80229;SDS011;69540;42.136;24.742;2024-02-14T14:28:11;3.47;;;3.17;;
80229;SDS011;69540;42.136;24.742;2024-02-14T14:30:37;3.85;;;3.53;;
80229;SDS011;69540;42.136;24.742;2024-02-14T14:33:03;4.07;;;3.67;;